createdAt,value
2023-03-26T00:02:24.874Z,96.50
2023-03-26T00:04:57.073Z,96.30
2023-03-26T00:07:29.388Z,96.10
2023-03-26T00:10:02.442Z,96.40
2023-03-26T00:12:34.724Z,96.40
2023-03-26T00:15:10.687Z,96.40
2023-03-26T00:17:43.101Z,96.50
2023-03-26T00:20:15.492Z,96.30
2023-03-26T00:22:48.259Z,96.00
2023-03-26T00:25:21.262Z,96.00
2023-03-26T00:27:54.190Z,96.00
2023-03-26T00:30:26.982Z,95.80
2023-03-26T00:32:59.499Z,95.90
2023-03-26T00:35:32.087Z,96.10
2023-03-26T00:38:04.717Z,95.70
2023-03-26T00:40:37.076Z,96.20
2023-03-26T00:43:18.993Z,96.50
2023-03-26T00:45:54.623Z,96.60
2023-03-26T00:48:42.169Z,96.90
2023-03-26T00:51:18.605Z,96.80
2023-03-26T00:53:51.462Z,97.10
2023-03-26T00:56:23.963Z,97.30
2023-03-26T00:58:58.220Z,97.30
2023-03-26T01:01:31.777Z,97.60
2023-03-26T01:04:24.600Z,97.70
2023-03-26T01:07:29.466Z,97.90
2023-03-26T01:10:01.595Z,98.20
2023-03-26T01:12:33.932Z,98.00
2023-03-26T01:15:08.474Z,98.10
2023-03-26T01:17:43.316Z,97.80
2023-03-26T01:20:26.909Z,98.10
2023-03-26T01:23:06.536Z,98.40
2023-03-26T01:25:43.518Z,98.50
2023-03-26T01:28:17.843Z,98.70
2023-03-26T01:31:02.862Z,99.00
2023-03-26T01:33:44.097Z,99.30
2023-03-26T01:36:21.800Z,99.50
2023-03-26T01:39:05.308Z,99.70
2023-03-26T01:42:09.961Z,99.90
2023-03-26T01:44:52.451Z,99.90
2023-03-26T01:47:25.219Z,99.90
2023-03-26T01:49:57.368Z,99.90
2023-03-26T01:52:29.881Z,99.90
2023-03-26T01:55:03.007Z,99.90
2023-03-26T01:57:43.794Z,99.90
2023-03-26T02:00:19.136Z,99.90
2023-03-26T02:02:59.618Z,99.90
2023-03-26T02:05:42.179Z,99.90
2023-03-26T02:08:24.081Z,99.90
2023-03-26T02:10:59.829Z,99.90
2023-03-26T02:13:32.775Z,99.90
2023-03-26T02:16:08.071Z,99.90
2023-03-26T02:18:41.260Z,99.90
2023-03-26T02:21:20.524Z,99.90
2023-03-26T02:24:03.517Z,99.90
2023-03-26T02:26:38.456Z,99.90
2023-03-26T02:29:19.544Z,99.90
2023-03-26T02:31:53.214Z,99.90
2023-03-26T02:34:25.457Z,99.90
2023-03-26T02:37:00.113Z,99.90
2023-03-26T02:39:33.161Z,99.90
2023-03-26T02:42:11.511Z,99.90
2023-03-26T02:44:51.280Z,99.90
2023-03-26T02:47:23.729Z,99.90
2023-03-26T02:49:58.553Z,99.90
2023-03-26T02:52:41.317Z,99.90
2023-03-26T02:55:14.049Z,99.90
2023-03-26T02:57:47.364Z,99.90
2023-03-26T03:00:26.071Z,99.90
2023-03-26T03:03:26.005Z,99.90
2023-03-26T03:06:01.611Z,99.90
2023-03-26T03:08:43.181Z,99.90
2023-03-26T03:11:22.453Z,99.90
2023-03-26T03:13:56.419Z,99.90
2023-03-26T03:16:32.317Z,99.90
2023-03-26T03:19:17.190Z,99.90
2023-03-26T03:21:49.544Z,99.90
2023-03-26T03:24:21.715Z,99.90
2023-03-26T03:26:58.171Z,99.90
2023-03-26T03:29:41.590Z,99.90
2023-03-26T03:32:32.450Z,99.90
2023-03-26T03:35:08.739Z,99.90
2023-03-26T03:37:41.122Z,99.90
2023-03-26T03:40:14.383Z,99.90
2023-03-26T03:42:47.382Z,99.90
2023-03-26T03:45:26.654Z,99.90
2023-03-26T03:48:12.826Z,99.90
2023-03-26T03:50:48.837Z,99.90
2023-03-26T03:53:30.705Z,99.90
2023-03-26T03:56:10.613Z,99.90
2023-03-26T03:59:06.176Z,99.90
2023-03-26T04:01:43.400Z,99.90
2023-03-26T04:04:24.910Z,99.90
2023-03-26T04:07:06.386Z,99.90
2023-03-26T04:09:56.375Z,99.90
2023-03-26T04:12:31.724Z,99.90
2023-03-26T04:15:07.281Z,99.90
2023-03-26T04:17:43.214Z,99.90
2023-03-26T04:20:19.570Z,99.90
2023-03-26T04:22:54.045Z,99.90
2023-03-26T04:25:33.528Z,99.90
2023-03-26T04:28:29.038Z,99.90
2023-03-26T04:31:17.055Z,99.90
2023-03-26T04:33:54.595Z,99.90
2023-03-26T04:36:30.223Z,99.90
2023-03-26T04:39:05.496Z,99.90
2023-03-26T04:41:58.087Z,99.90
2023-03-26T04:44:37.538Z,99.90
2023-03-26T04:47:15.319Z,99.90
2023-03-26T04:49:51.195Z,99.90
2023-03-26T04:52:24.278Z,99.90
2023-03-26T04:55:03.241Z,99.90
2023-03-26T04:57:43.889Z,99.90
2023-03-26T05:00:25.660Z,99.90
2023-03-26T05:03:02.335Z,99.90
2023-03-26T05:05:34.561Z,99.90
2023-03-26T05:08:10.331Z,99.90
2023-03-26T05:10:42.657Z,99.90
2023-03-26T05:13:24.320Z,99.90
2023-03-26T05:15:59.578Z,99.90
2023-03-26T05:18:42.335Z,99.90
2023-03-26T05:21:14.920Z,99.90
2023-03-26T05:23:47.466Z,99.90
2023-03-26T05:26:24.762Z,99.90
2023-03-26T05:28:57.116Z,99.90
2023-03-26T05:31:34.020Z,99.90
2023-03-26T05:34:07.440Z,99.90
2023-03-26T05:36:39.722Z,99.90
2023-03-26T05:39:26.452Z,99.90
2023-03-26T05:42:18.801Z,99.90
2023-03-26T05:45:08.844Z,99.90
2023-03-26T05:47:41.301Z,99.90
2023-03-26T05:50:13.690Z,99.90
2023-03-26T05:52:48.437Z,99.90
2023-03-26T05:55:59.077Z,99.90
2023-03-26T05:58:51.863Z,99.90
2023-03-26T06:01:45.023Z,99.90
2023-03-26T06:04:48.204Z,99.90
2023-03-26T06:07:49.999Z,99.90
2023-03-26T06:10:24.420Z,99.90
2023-03-26T06:12:56.609Z,99.90
2023-03-26T06:15:29.410Z,99.90
2023-03-26T06:18:06.828Z,99.90
2023-03-26T06:21:06.434Z,99.90
2023-03-26T06:23:49.282Z,99.90
2023-03-26T06:26:39.049Z,99.90
2023-03-26T06:29:25.574Z,99.90
2023-03-26T06:32:16.249Z,99.90
2023-03-26T06:34:53.601Z,99.90
2023-03-26T06:37:25.969Z,99.90
2023-03-26T06:40:07.503Z,99.90
2023-03-26T06:43:12.199Z,99.90
2023-03-26T06:46:16.606Z,99.90
2023-03-26T06:48:57.980Z,99.90
2023-03-26T06:51:37.919Z,99.90
2023-03-26T06:54:36.420Z,99.90
2023-03-26T06:57:28.950Z,99.90
2023-03-26T07:00:22.046Z,99.90
2023-03-26T07:03:12.880Z,99.90
2023-03-26T07:06:03.597Z,99.90
2023-03-26T07:09:02.902Z,99.90
2023-03-26T07:11:53.734Z,99.90
2023-03-26T07:14:52.052Z,99.90
2023-03-26T07:17:42.927Z,99.90
2023-03-26T07:20:22.188Z,99.90
2023-03-26T07:22:54.767Z,99.90
2023-03-26T07:25:45.185Z,99.90
2023-03-26T07:29:42.428Z,99.90
2023-03-26T07:32:30.700Z,99.90
2023-03-26T07:35:26.605Z,99.90
2023-03-26T07:38:38.530Z,99.90
2023-03-26T07:42:05.807Z,99.90
2023-03-26T07:45:12.646Z,99.90
2023-03-26T07:48:18.656Z,99.90
2023-03-26T07:51:10.656Z,99.90
2023-03-26T07:54:00.783Z,99.90
2023-03-26T07:57:09.182Z,99.90
2023-03-26T07:59:56.179Z,99.90
2023-03-26T08:03:24.345Z,99.90
2023-03-26T08:06:06.656Z,99.90
2023-03-26T08:09:23.029Z,99.90
2023-03-26T08:12:23.140Z,99.90
2023-03-26T08:15:03.238Z,99.90
2023-03-26T08:17:47.965Z,99.90
2023-03-26T08:20:36.521Z,99.90
2023-03-26T08:23:19.034Z,99.90
2023-03-26T08:25:59.762Z,99.90
2023-03-26T08:28:56.509Z,99.90
2023-03-26T08:31:35.639Z,99.90
2023-03-26T08:34:11.952Z,99.90
2023-03-26T08:36:44.360Z,99.90
2023-03-26T08:39:17.270Z,99.90
2023-03-26T08:41:52.340Z,99.90
2023-03-26T08:44:54.837Z,99.90
2023-03-26T08:47:59.430Z,99.90
2023-03-26T08:50:59.745Z,99.90
2023-03-26T08:54:11.087Z,99.90
2023-03-26T08:57:15.196Z,99.90
2023-03-26T09:00:11.433Z,99.90
2023-03-26T09:03:24.924Z,99.90
2023-03-26T09:06:15.961Z,99.90
2023-03-26T09:09:19.116Z,99.90
2023-03-26T09:12:14.907Z,99.90
2023-03-26T09:15:14.827Z,99.90
2023-03-26T09:18:29.620Z,99.90
2023-03-26T09:21:11.177Z,99.90
2023-03-26T09:24:18.753Z,99.90
2023-03-26T09:27:15.008Z,99.90
2023-03-26T09:29:53.142Z,99.90
2023-03-26T09:32:37.181Z,99.90
2023-03-26T09:35:28.170Z,99.90
2023-03-26T09:38:15.752Z,99.90
2023-03-26T09:41:14.093Z,99.90
2023-03-26T09:44:18.269Z,99.90
2023-03-26T09:47:04.442Z,99.90
2023-03-26T09:49:58.285Z,99.90
2023-03-26T09:52:45.883Z,99.90
2023-03-26T09:55:42.352Z,99.90
2023-03-26T09:58:33.736Z,99.90
2023-03-26T10:01:32.517Z,99.90
2023-03-26T10:04:36.098Z,99.90
2023-03-26T10:07:09.002Z,99.90
2023-03-26T10:09:57.666Z,99.90
2023-03-26T10:13:14.799Z,99.90
2023-03-26T10:16:20.786Z,99.90
2023-03-26T10:18:58.767Z,99.90
2023-03-26T10:21:52.533Z,99.90
2023-03-26T10:25:02.981Z,99.90
2023-03-26T10:28:07.408Z,99.90
2023-03-26T10:30:48.691Z,99.90
2023-03-26T10:33:39.669Z,99.90
2023-03-26T10:36:32.697Z,99.90
2023-03-26T10:39:38.202Z,99.90
2023-03-26T10:42:29.216Z,99.90
2023-03-26T10:45:20.997Z,99.90
2023-03-26T10:48:15.216Z,99.90
2023-03-26T10:51:20.892Z,99.90
2023-03-26T10:54:07.319Z,99.90
2023-03-26T10:56:45.965Z,99.90
2023-03-26T10:59:19.457Z,99.90
2023-03-26T11:02:04.613Z,99.90
2023-03-26T11:04:47.210Z,99.90
2023-03-26T11:07:34.552Z,99.90
2023-03-26T11:10:16.602Z,99.90
2023-03-26T11:13:20.672Z,99.90
2023-03-26T11:16:03.494Z,99.90
2023-03-26T11:18:59.172Z,99.90
2023-03-26T11:21:42.513Z,99.90
2023-03-26T11:24:42.828Z,99.90
2023-03-26T11:27:23.695Z,99.90
2023-03-26T11:30:29.222Z,99.90
2023-03-26T11:33:06.034Z,99.90
2023-03-26T11:35:42.509Z,99.90
2023-03-26T11:38:26.706Z,99.90
2023-03-26T11:41:01.541Z,99.90
2023-03-26T11:44:00.922Z,99.90
2023-03-26T11:46:46.267Z,99.90
2023-03-26T11:49:22.312Z,99.90
2023-03-26T11:51:55.266Z,99.90
2023-03-26T11:54:28.559Z,99.90
2023-03-26T11:57:13.491Z,99.90
2023-03-26T12:00:16.476Z,99.90
2023-03-26T12:02:49.668Z,99.90
2023-03-26T12:05:36.834Z,99.90
2023-03-26T12:08:28.888Z,99.90
2023-03-26T12:11:11.058Z,99.90
2023-03-26T12:14:04.209Z,99.90
2023-03-26T12:16:36.879Z,99.90
2023-03-26T12:19:29.294Z,99.90
2023-03-26T12:22:01.799Z,99.90
2023-03-26T12:24:36.406Z,99.90
2023-03-26T12:27:33.467Z,99.90
2023-03-26T12:30:22.622Z,99.90
2023-03-26T12:33:06.125Z,99.90
2023-03-26T12:35:38.828Z,99.90
2023-03-26T12:38:34.420Z,99.90
2023-03-26T12:43:51.346Z,99.90
2023-03-26T12:44:59.112Z,99.90
2023-03-26T12:47:59.071Z,99.90
2023-03-26T12:50:35.818Z,99.90
2023-03-26T12:53:34.074Z,99.90
2023-03-26T12:56:22.470Z,99.90
2023-03-26T12:59:14.351Z,99.90
2023-03-26T13:02:09.714Z,99.90
2023-03-26T13:05:05.066Z,99.90
2023-03-26T13:07:52.867Z,99.90
2023-03-26T13:10:29.444Z,99.90
2023-03-26T13:13:25.807Z,99.90
2023-03-26T13:16:13.800Z,99.90
2023-03-26T13:18:59.816Z,99.90
2023-03-26T13:21:38.405Z,99.90
2023-03-26T13:24:25.117Z,99.90
2023-03-26T13:27:15.954Z,99.90
2023-03-26T13:30:17.781Z,99.90
2023-03-26T13:32:58.997Z,99.90
2023-03-26T13:35:41.703Z,99.90
2023-03-26T13:38:34.490Z,99.90
2023-03-26T13:41:24.767Z,99.90
2023-03-26T13:44:19.779Z,99.90
2023-03-26T13:47:24.195Z,99.90
2023-03-26T13:50:04.206Z,99.90
2023-03-26T13:53:14.102Z,99.90
2023-03-26T13:55:53.731Z,99.90
2023-03-26T13:59:03.835Z,99.90
2023-03-26T14:01:50.570Z,99.90
2023-03-26T14:04:44.297Z,99.90
2023-03-26T14:07:26.564Z,99.90
2023-03-26T14:10:08.018Z,99.90
2023-03-26T14:13:10.662Z,99.90
2023-03-26T14:16:05.580Z,99.90
2023-03-26T14:18:59.602Z,99.90
2023-03-26T14:21:39.529Z,99.90
2023-03-26T14:24:39.176Z,99.90
2023-03-26T14:27:34.334Z,99.90
2023-03-26T14:30:31.239Z,99.90
2023-03-26T14:33:27.560Z,99.90
2023-03-26T14:36:18.924Z,99.90
2023-03-26T14:39:27.765Z,99.90
2023-03-26T14:42:08.208Z,99.90
2023-03-26T14:44:56.737Z,99.90
2023-03-26T14:47:30.656Z,99.90
2023-03-26T14:50:15.962Z,99.90
2023-03-26T14:53:01.466Z,99.90
2023-03-26T14:56:01.614Z,99.90
2023-03-26T14:58:53.107Z,99.90
2023-03-26T15:01:29.793Z,99.90
2023-03-26T15:04:26.913Z,99.90
2023-03-26T15:07:32.557Z,99.90
2023-03-26T15:10:17.828Z,99.90
2023-03-26T15:13:18.057Z,99.90
2023-03-26T15:16:09.512Z,99.90
2023-03-26T15:18:41.703Z,99.90
2023-03-26T15:21:32.289Z,99.90
2023-03-26T15:24:45.202Z,99.90
2023-03-26T15:27:47.516Z,99.90
2023-03-26T15:30:43.175Z,99.90
2023-03-26T15:33:40.111Z,99.90
2023-03-26T15:36:34.638Z,99.90
2023-03-26T15:39:59.077Z,99.90
2023-03-26T15:42:56.844Z,99.90
2023-03-26T15:45:35.683Z,99.90
2023-03-26T15:48:13.811Z,99.90
2023-03-26T15:50:55.026Z,99.90
2023-03-26T15:53:36.892Z,99.90
2023-03-26T15:56:27.787Z,99.90
2023-03-26T15:59:25.153Z,99.90
2023-03-26T16:02:16.358Z,99.90
2023-03-26T16:05:14.858Z,99.90
2023-03-26T16:07:58.925Z,97.00
2023-03-26T16:10:51.505Z,96.00
2023-03-26T16:13:26.759Z,95.60
2023-03-26T16:16:04.894Z,97.10
2023-03-26T16:18:41.410Z,97.90
2023-03-26T16:21:35.197Z,97.40
2023-03-26T16:24:08.468Z,98.60
2023-03-26T16:27:20.049Z,99.90
2023-03-26T16:30:27.531Z,99.80
2023-03-26T16:33:10.468Z,99.90
2023-03-26T16:36:03.427Z,99.90
2023-03-26T16:39:08.617Z,99.90
2023-03-26T16:41:47.241Z,99.90
2023-03-26T16:44:44.876Z,99.90
2023-03-26T16:47:50.789Z,99.90
2023-03-26T16:51:04.089Z,99.90
2023-03-26T16:53:41.987Z,99.90
2023-03-26T16:56:16.872Z,99.90
2023-03-26T16:59:05.204Z,99.90
2023-03-26T17:01:50.738Z,99.90
2023-03-26T17:04:31.939Z,99.90
2023-03-26T17:07:42.624Z,99.90
2023-03-26T17:10:34.140Z,99.90
2023-03-26T17:13:55.631Z,99.90
2023-03-26T17:16:35.021Z,99.90
2023-03-26T17:19:24.739Z,99.90
2023-03-26T17:22:11.675Z,99.90
2023-03-26T17:24:57.728Z,99.90
2023-03-26T17:27:52.258Z,99.90
2023-03-26T17:30:30.992Z,99.90
2023-03-26T17:33:03.741Z,99.90
2023-03-26T17:35:50.988Z,99.90
2023-03-26T17:38:26.978Z,99.90
2023-03-26T17:41:00.373Z,99.90
2023-03-26T17:43:42.535Z,99.90
2023-03-26T17:46:25.938Z,99.90
2023-03-26T17:49:19.470Z,99.90
2023-03-26T17:51:59.590Z,99.90
2023-03-26T17:54:37.010Z,99.90
2023-03-26T17:57:51.859Z,99.90
2023-03-26T18:00:27.824Z,99.90
2023-03-26T18:03:04.755Z,99.90
2023-03-26T18:05:40.035Z,99.90
2023-03-26T18:08:24.291Z,99.90
2023-03-26T18:11:15.065Z,99.90
2023-03-26T18:14:21.158Z,99.90
2023-03-26T18:16:57.110Z,99.90
2023-03-26T18:19:32.098Z,99.90
2023-03-26T18:22:05.606Z,99.90
2023-03-26T18:24:39.241Z,99.90
2023-03-26T18:27:20.481Z,99.90
2023-03-26T18:30:17.232Z,99.90
2023-03-26T18:33:05.606Z,99.90
2023-03-26T18:35:46.361Z,99.90
2023-03-26T18:38:35.474Z,99.90
2023-03-26T18:41:23.898Z,99.90
2023-03-26T18:43:57.615Z,99.90
2023-03-26T18:46:30.086Z,99.90
2023-03-26T18:49:03.173Z,99.90
2023-03-26T18:51:46.373Z,99.90
2023-03-26T18:54:34.380Z,99.90
2023-03-26T18:57:19.196Z,99.90
2023-03-26T18:59:54.345Z,99.90
2023-03-26T19:02:27.068Z,99.90
2023-03-26T19:05:03.335Z,99.90
2023-03-26T19:07:37.600Z,99.90
2023-03-26T19:10:18.742Z,99.90
2023-03-26T19:13:04.417Z,99.90
2023-03-26T19:15:37.187Z,99.90
2023-03-26T19:18:14.335Z,99.90
2023-03-26T19:20:54.503Z,99.90
2023-03-26T19:23:32.474Z,99.90
2023-03-26T19:26:08.026Z,99.90
2023-03-26T19:28:49.311Z,99.90
2023-03-26T19:31:34.019Z,99.90
2023-03-26T19:34:13.798Z,99.90
2023-03-26T19:36:58.428Z,99.90
2023-03-26T19:39:44.533Z,99.90
2023-03-26T19:42:26.662Z,99.90
2023-03-26T19:45:02.004Z,99.90
2023-03-26T19:50:37.198Z,99.90
2023-03-26T19:51:18.650Z,99.90
2023-03-26T19:53:19.096Z,99.90
2023-03-26T19:55:58.879Z,99.90
2023-03-26T19:58:31.189Z,99.90
2023-03-26T20:01:04.580Z,99.90
2023-03-26T20:03:43.076Z,99.90
2023-03-26T20:06:18.916Z,99.90
2023-03-26T20:08:52.418Z,99.90
2023-03-26T20:11:33.576Z,99.90
2023-03-26T20:14:13.384Z,99.90
2023-03-26T20:16:46.165Z,99.90
2023-03-26T20:19:19.458Z,99.90
2023-03-26T20:21:53.207Z,99.90
2023-03-26T20:24:26.276Z,99.90
2023-03-26T20:26:58.741Z,99.90
2023-03-26T20:29:30.986Z,99.90
2023-03-26T20:32:10.394Z,99.90
2023-03-26T20:34:42.544Z,99.90
2023-03-26T20:37:15.576Z,99.90
2023-03-26T20:39:48.281Z,99.90
2023-03-26T20:42:20.418Z,99.90
2023-03-26T20:44:52.618Z,99.90
2023-03-26T20:47:25.572Z,99.90
2023-03-26T20:49:57.894Z,99.90
2023-03-26T20:52:30.063Z,99.90
2023-03-26T20:55:03.548Z,99.90
2023-03-26T20:57:35.742Z,99.90
2023-03-26T21:00:22.062Z,99.90
2023-03-26T21:02:56.762Z,99.90
2023-03-26T21:05:30.301Z,99.90
2023-03-26T21:08:02.856Z,99.90
2023-03-26T21:10:36.139Z,99.90
2023-03-26T21:13:33.461Z,99.90
2023-03-26T21:16:06.688Z,99.90
2023-03-26T21:18:39.974Z,99.90
2023-03-26T21:21:57.532Z,99.90
2023-03-26T21:24:41.139Z,99.90
2023-03-26T21:27:28.772Z,99.90
2023-03-26T21:30:01.308Z,99.90
2023-03-26T21:32:34.215Z,99.90
2023-03-26T21:35:07.253Z,99.90
2023-03-26T21:37:43.024Z,99.90
2023-03-26T21:40:18.552Z,99.90
2023-03-26T21:42:53.146Z,99.90
2023-03-26T21:45:25.702Z,99.90
2023-03-26T21:47:58.288Z,99.90
2023-03-26T21:50:30.964Z,99.90
2023-03-26T21:53:03.437Z,99.90
2023-03-26T21:55:47.815Z,99.90
2023-03-26T21:58:47.842Z,99.90
2023-03-26T22:01:37.839Z,99.90
2023-03-26T22:04:34.544Z,99.90
2023-03-26T22:07:26.044Z,99.90
2023-03-26T22:09:58.257Z,99.90
2023-03-26T22:12:30.398Z,99.90
2023-03-26T22:15:02.596Z,99.90
2023-03-26T22:17:34.823Z,99.90
2023-03-26T22:20:13.127Z,99.90
2023-03-26T22:22:48.961Z,99.90
2023-03-26T22:25:22.656Z,99.90
2023-03-26T22:27:58.033Z,99.90
2023-03-26T22:30:31.140Z,99.90
2023-03-26T22:33:03.695Z,99.90
2023-03-26T22:35:40.292Z,99.90
2023-03-26T22:38:17.479Z,99.90
2023-03-26T22:40:58.809Z,99.90
2023-03-26T22:43:36.596Z,99.90
2023-03-26T22:46:16.711Z,99.90
2023-03-26T22:48:49.584Z,99.90
2023-03-26T22:51:21.987Z,99.90
2023-03-26T22:53:54.188Z,99.90
2023-03-26T22:56:26.412Z,99.90
2023-03-26T22:58:58.698Z,99.90
2023-03-26T23:01:31.348Z,99.90
2023-03-26T23:04:03.707Z,99.90
2023-03-26T23:06:36.344Z,99.90
2023-03-26T23:09:19.900Z,99.90
2023-03-26T23:11:52.260Z,99.90
2023-03-26T23:18:09.363Z,99.90
2023-03-26T23:20:43.013Z,99.90
2023-03-26T23:23:16.185Z,99.90
2023-03-26T23:25:48.741Z,99.90
2023-03-26T23:28:21.729Z,99.90
2023-03-26T23:30:55.462Z,99.90
2023-03-26T23:33:30.678Z,99.90
2023-03-26T23:36:09.144Z,99.90
2023-03-26T23:38:43.467Z,99.90
2023-03-26T23:41:19.637Z,99.90
2023-03-26T23:43:55.601Z,99.90
2023-03-26T23:46:34.899Z,99.90
2023-03-26T23:49:07.365Z,99.90
2023-03-26T23:51:39.831Z,99.90
2023-03-26T23:54:13.435Z,99.90
2023-03-26T23:56:46.271Z,99.90
2023-03-26T23:59:19.229Z,99.90
